sensor_id;sensor_type;location;lat;lon;timestamp;temperature;humidity
11284;DHT22;5698;47.332;11.180;2023-02-02T00:02:01;-0.20;99.90
11284;DHT22;5698;47.332;11.180;2023-02-02T00:04:30;-0.20;99.90
11284;DHT22;5698;47.332;11.180;2023-02-02T00:06:57;-0.20;99.90
11284;DHT22;5698;47.332;11.180;2023-02-02T00:09:26;-0.10;99.90
11284;DHT22;5698;47.332;11.180;2023-02-02T00:11:53;-0.10;99.90
11284;DHT22;5698;47.332;11.180;2023-02-02T00:14:21;-0.10;99.90
11284;DHT22;5698;47.332;11.180;2023-02-02T00:16:49;-0.10;99.90
11284;DHT22;5698;47.332;11.180;2023-02-02T00:19:19;-0.10;99.90
11284;DHT22;5698;47.332;11.180;2023-02-02T00:21:47;-0.10;99.90
11284;DHT22;5698;47.332;11.180;2023-02-02T00:24:16;-0.10;99.90
11284;DHT22;5698;47.332;11.180;2023-02-02T00:26:45;-0.20;99.90
11284;DHT22;5698;47.332;11.180;2023-02-02T00:29:14;-0.20;99.90
11284;DHT22;5698;47.332;11.180;2023-02-02T00:31:41;-0.20;99.90
11284;DHT22;5698;47.332;11.180;2023-02-02T00:34:10;-0.20;99.90
11284;DHT22;5698;47.332;11.180;2023-02-02T00:36:39;-0.30;99.90
11284;DHT22;5698;47.332;11.180;2023-02-02T00:39:06;-0.30;99.90
11284;DHT22;5698;47.332;11.180;2023-02-02T00:41:33;-0.30;99.90
11284;DHT22;5698;47.332;11.180;2023-02-02T00:44:00;-0.30;99.90
11284;DHT22;5698;47.332;11.180;2023-02-02T00:46:45;-0.30;99.90
11284;DHT22;5698;47.332;11.180;2023-02-02T00:49:12;-0.20;99.90
11284;DHT22;5698;47.332;11.180;2023-02-02T00:51:41;-0.30;99.90
11284;DHT22;5698;47.332;11.180;2023-02-02T00:54:08;-0.30;99.90
11284;DHT22;5698;47.332;11.180;2023-02-02T00:56:35;-0.30;99.90
11284;DHT22;5698;47.332;11.180;2023-02-02T00:59:02;-0.30;99.90
11284;DHT22;5698;47.332;11.180;2023-02-02T01:01:29;-0.30;99.90
11284;DHT22;5698;47.332;11.180;2023-02-02T01:03:56;-0.30;99.90
11284;DHT22;5698;47.332;11.180;2023-02-02T01:06:24;-0.20;99.90
11284;DHT22;5698;47.332;11.180;2023-02-02T01:08:52;-0.30;99.90
11284;DHT22;5698;47.332;11.180;2023-02-02T01:11:19;-0.30;99.90
11284;DHT22;5698;47.332;11.180;2023-02-02T01:13:46;-0.30;99.90
11284;DHT22;5698;47.332;11.180;2023-02-02T01:16:14;-0.30;99.90
11284;DHT22;5698;47.332;11.180;2023-02-02T01:18:41;-0.30;99.90
11284;DHT22;5698;47.332;11.180;2023-02-02T01:21:10;-0.30;99.90
11284;DHT22;5698;47.332;11.180;2023-02-02T01:23:38;-0.30;99.90
11284;DHT22;5698;47.332;11.180;2023-02-02T01:26:07;-0.30;99.90
11284;DHT22;5698;47.332;11.180;2023-02-02T01:28:35;-0.30;99.90
11284;DHT22;5698;47.332;11.180;2023-02-02T01:31:06;-0.30;99.90
11284;DHT22;5698;47.332;11.180;2023-02-02T01:33:33;-0.30;99.90
11284;DHT22;5698;47.332;11.180;2023-02-02T01:36:03;-0.30;99.90
11284;DHT22;5698;47.332;11.180;2023-02-02T01:38:31;-0.30;99.90
11284;DHT22;5698;47.332;11.180;2023-02-02T01:40:58;-0.30;99.90
11284;DHT22;5698;47.332;11.180;2023-02-02T01:43:28;-0.30;99.90
11284;DHT22;5698;47.332;11.180;2023-02-02T01:45:56;-0.30;99.90
11284;DHT22;5698;47.332;11.180;2023-02-02T01:48:27;-0.30;99.90
11284;DHT22;5698;47.332;11.180;2023-02-02T01:50:58;-0.30;99.90
11284;DHT22;5698;47.332;11.180;2023-02-02T01:53:27;-0.30;99.90
11284;DHT22;5698;47.332;11.180;2023-02-02T01:55:54;-0.30;99.90
11284;DHT22;5698;47.332;11.180;2023-02-02T01:58:25;-0.40;99.90
11284;DHT22;5698;47.332;11.180;2023-02-02T02:00:54;-0.40;99.90
11284;DHT22;5698;47.332;11.180;2023-02-02T02:03:24;-0.40;99.90
11284;DHT22;5698;47.332;11.180;2023-02-02T02:05:54;-0.40;99.90
11284;DHT22;5698;47.332;11.180;2023-02-02T02:08:26;-0.40;99.90
11284;DHT22;5698;47.332;11.180;2023-02-02T02:10:53;-0.50;99.90
11284;DHT22;5698;47.332;11.180;2023-02-02T02:13:23;-0.40;99.90
11284;DHT22;5698;47.332;11.180;2023-02-02T02:16:17;-0.30;99.90
11284;DHT22;5698;47.332;11.180;2023-02-02T02:18:49;-0.30;99.90
11284;DHT22;5698;47.332;11.180;2023-02-02T02:21:34;-0.40;99.90
11284;DHT22;5698;47.332;11.180;2023-02-02T02:33:41;-0.40;99.90
11284;DHT22;5698;47.332;11.180;2023-02-02T02:36:18;-0.40;99.90
11284;DHT22;5698;47.332;11.180;2023-02-02T02:38:50;-0.40;99.90
11284;DHT22;5698;47.332;11.180;2023-02-02T02:41:22;-0.60;99.90
11284;DHT22;5698;47.332;11.180;2023-02-02T02:43:55;-0.60;99.90
11284;DHT22;5698;47.332;11.180;2023-02-02T02:46:23;-0.60;99.90
11284;DHT22;5698;47.332;11.180;2023-02-02T02:48:52;-0.50;99.90
11284;DHT22;5698;47.332;11.180;2023-02-02T02:51:45;-0.60;99.90
11284;DHT22;5698;47.332;11.180;2023-02-02T02:54:15;-0.60;99.90
11284;DHT22;5698;47.332;11.180;2023-02-02T02:57:18;-0.60;99.90
11284;DHT22;5698;47.332;11.180;2023-02-02T02:59:53;-0.50;99.90
11284;DHT22;5698;47.332;11.180;2023-02-02T03:02:32;-0.60;99.90
11284;DHT22;5698;47.332;11.180;2023-02-02T03:05:20;-0.60;99.90
11284;DHT22;5698;47.332;11.180;2023-02-02T03:07:54;-0.60;99.90
11284;DHT22;5698;47.332;11.180;2023-02-02T03:10:23;-0.60;99.90
11284;DHT22;5698;47.332;11.180;2023-02-02T03:12:53;-0.50;99.90
11284;DHT22;5698;47.332;11.180;2023-02-02T03:15:21;-0.50;99.90
11284;DHT22;5698;47.332;11.180;2023-02-02T03:17:50;-0.50;99.90
11284;DHT22;5698;47.332;11.180;2023-02-02T03:20:20;-0.60;99.90
11284;DHT22;5698;47.332;11.180;2023-02-02T03:22:47;-0.60;99.90
11284;DHT22;5698;47.332;11.180;2023-02-02T03:25:14;-0.60;99.90
11284;DHT22;5698;47.332;11.180;2023-02-02T03:27:41;-0.50;99.90
11284;DHT22;5698;47.332;11.180;2023-02-02T03:30:10;-0.50;99.90
11284;DHT22;5698;47.332;11.180;2023-02-02T03:32:38;-0.50;99.90
11284;DHT22;5698;47.332;11.180;2023-02-02T03:35:06;-0.50;99.90
11284;DHT22;5698;47.332;11.180;2023-02-02T03:37:35;-0.50;99.90
11284;DHT22;5698;47.332;11.180;2023-02-02T03:40:03;-0.60;99.90
11284;DHT22;5698;47.332;11.180;2023-02-02T03:42:30;-0.60;99.90
11284;DHT22;5698;47.332;11.180;2023-02-02T03:44:57;-0.60;99.90
11284;DHT22;5698;47.332;11.180;2023-02-02T03:47:27;-0.60;99.90
11284;DHT22;5698;47.332;11.180;2023-02-02T03:49:54;-0.70;99.90
11284;DHT22;5698;47.332;11.180;2023-02-02T03:52:21;-0.70;99.90
11284;DHT22;5698;47.332;11.180;2023-02-02T03:54:50;-0.70;99.90
11284;DHT22;5698;47.332;11.180;2023-02-02T03:57:17;-0.70;99.90
11284;DHT22;5698;47.332;11.180;2023-02-02T03:59:45;-0.70;99.90
11284;DHT22;5698;47.332;11.180;2023-02-02T04:02:12;-0.70;99.90
11284;DHT22;5698;47.332;11.180;2023-02-02T04:04:39;-0.60;99.90
11284;DHT22;5698;47.332;11.180;2023-02-02T04:07:06;-0.60;99.90
11284;DHT22;5698;47.332;11.180;2023-02-02T04:09:33;-0.60;99.90
11284;DHT22;5698;47.332;11.180;2023-02-02T04:12:01;-0.60;99.90
11284;DHT22;5698;47.332;11.180;2023-02-02T04:14:28;-0.60;99.90
11284;DHT22;5698;47.332;11.180;2023-02-02T04:16:55;-0.60;99.90
11284;DHT22;5698;47.332;11.180;2023-02-02T04:19:22;-0.70;99.90
11284;DHT22;5698;47.332;11.180;2023-02-02T04:21:49;-0.70;99.90
11284;DHT22;5698;47.332;11.180;2023-02-02T04:24:17;-0.70;99.90
11284;DHT22;5698;47.332;11.180;2023-02-02T04:26:44;-0.70;99.90
11284;DHT22;5698;47.332;11.180;2023-02-02T04:29:13;-0.70;99.90
11284;DHT22;5698;47.332;11.180;2023-02-02T04:31:40;-0.70;99.90
11284;DHT22;5698;47.332;11.180;2023-02-02T04:34:07;-0.70;99.90
11284;DHT22;5698;47.332;11.180;2023-02-02T04:36:34;-0.70;99.90
11284;DHT22;5698;47.332;11.180;2023-02-02T04:39:01;-0.70;99.90
11284;DHT22;5698;47.332;11.180;2023-02-02T04:41:28;-0.70;99.90
11284;DHT22;5698;47.332;11.180;2023-02-02T04:43:55;-0.70;99.90
11284;DHT22;5698;47.332;11.180;2023-02-02T04:46:23;-0.70;99.90
11284;DHT22;5698;47.332;11.180;2023-02-02T04:48:53;-0.70;99.90
11284;DHT22;5698;47.332;11.180;2023-02-02T04:51:20;-0.80;99.90
11284;DHT22;5698;47.332;11.180;2023-02-02T04:53:47;-0.80;99.90
11284;DHT22;5698;47.332;11.180;2023-02-02T04:56:16;-0.80;99.90
11284;DHT22;5698;47.332;11.180;2023-02-02T04:58:44;-0.90;99.90
11284;DHT22;5698;47.332;11.180;2023-02-02T05:01:14;-0.90;99.90
11284;DHT22;5698;47.332;11.180;2023-02-02T05:03:42;-0.90;99.90
11284;DHT22;5698;47.332;11.180;2023-02-02T05:06:09;-1.00;99.90
11284;DHT22;5698;47.332;11.180;2023-02-02T05:08:37;-1.00;99.90
11284;DHT22;5698;47.332;11.180;2023-02-02T05:11:07;-0.90;99.90
11284;DHT22;5698;47.332;11.180;2023-02-02T05:13:34;-0.90;99.90
11284;DHT22;5698;47.332;11.180;2023-02-02T05:16:01;-0.80;99.90
11284;DHT22;5698;47.332;11.180;2023-02-02T05:18:28;-0.80;99.90
11284;DHT22;5698;47.332;11.180;2023-02-02T05:21:00;-1.00;99.90
11284;DHT22;5698;47.332;11.180;2023-02-02T05:23:27;-0.90;99.90
11284;DHT22;5698;47.332;11.180;2023-02-02T05:25:55;-1.00;99.90
11284;DHT22;5698;47.332;11.180;2023-02-02T05:28:23;-1.00;99.90
11284;DHT22;5698;47.332;11.180;2023-02-02T05:30:50;-1.10;99.90
11284;DHT22;5698;47.332;11.180;2023-02-02T05:33:17;-1.10;99.90
11284;DHT22;5698;47.332;11.180;2023-02-02T05:35:45;-1.10;99.90
11284;DHT22;5698;47.332;11.180;2023-02-02T05:38:14;-1.10;99.90
11284;DHT22;5698;47.332;11.180;2023-02-02T05:40:41;-1.00;99.90
11284;DHT22;5698;47.332;11.180;2023-02-02T05:43:09;-1.00;99.90
11284;DHT22;5698;47.332;11.180;2023-02-02T05:45:35;-1.10;99.90
11284;DHT22;5698;47.332;11.180;2023-02-02T05:48:05;-1.10;99.90
11284;DHT22;5698;47.332;11.180;2023-02-02T05:50:32;-1.10;99.90
11284;DHT22;5698;47.332;11.180;2023-02-02T05:52:59;-1.10;99.90
11284;DHT22;5698;47.332;11.180;2023-02-02T05:55:27;-1.00;99.90
11284;DHT22;5698;47.332;11.180;2023-02-02T05:57:54;-1.10;99.90
11284;DHT22;5698;47.332;11.180;2023-02-02T06:00:22;-1.10;99.90
11284;DHT22;5698;47.332;11.180;2023-02-02T06:02:49;-1.10;99.90
11284;DHT22;5698;47.332;11.180;2023-02-02T06:05:16;-1.10;99.90
11284;DHT22;5698;47.332;11.180;2023-02-02T06:07:43;-1.10;99.90
11284;DHT22;5698;47.332;11.180;2023-02-02T06:10:10;-1.00;99.90
11284;DHT22;5698;47.332;11.180;2023-02-02T06:12:38;-1.10;99.90
11284;DHT22;5698;47.332;11.180;2023-02-02T06:15:06;-1.10;99.90
11284;DHT22;5698;47.332;11.180;2023-02-02T06:17:33;-1.10;99.90
11284;DHT22;5698;47.332;11.180;2023-02-02T06:20:00;-0.90;99.90
11284;DHT22;5698;47.332;11.180;2023-02-02T06:22:27;-1.10;99.90
11284;DHT22;5698;47.332;11.180;2023-02-02T06:24:56;-1.10;99.90
11284;DHT22;5698;47.332;11.180;2023-02-02T06:27:24;-1.10;99.90
11284;DHT22;5698;47.332;11.180;2023-02-02T06:29:52;-1.20;99.90
11284;DHT22;5698;47.332;11.180;2023-02-02T06:32:19;-1.10;99.90
11284;DHT22;5698;47.332;11.180;2023-02-02T06:34:46;-1.00;99.90
11284;DHT22;5698;47.332;11.180;2023-02-02T06:37:13;-1.00;99.90
11284;DHT22;5698;47.332;11.180;2023-02-02T06:39:40;-1.00;99.90
11284;DHT22;5698;47.332;11.180;2023-02-02T06:42:07;-1.00;99.90
11284;DHT22;5698;47.332;11.180;2023-02-02T06:44:34;-1.00;99.90
11284;DHT22;5698;47.332;11.180;2023-02-02T06:47:03;-1.00;99.90
11284;DHT22;5698;47.332;11.180;2023-02-02T06:49:30;-1.00;99.90
11284;DHT22;5698;47.332;11.180;2023-02-02T06:51:57;-1.00;99.90
11284;DHT22;5698;47.332;11.180;2023-02-02T06:54:24;-0.90;99.90
11284;DHT22;5698;47.332;11.180;2023-02-02T06:56:51;-0.90;99.90
11284;DHT22;5698;47.332;11.180;2023-02-02T06:59:18;-0.90;99.90
11284;DHT22;5698;47.332;11.180;2023-02-02T07:01:47;-0.90;99.90
11284;DHT22;5698;47.332;11.180;2023-02-02T07:04:17;-0.90;99.90
11284;DHT22;5698;47.332;11.180;2023-02-02T07:06:44;-1.00;99.90
11284;DHT22;5698;47.332;11.180;2023-02-02T07:09:11;-0.90;99.90
11284;DHT22;5698;47.332;11.180;2023-02-02T07:11:38;-0.90;99.90
11284;DHT22;5698;47.332;11.180;2023-02-02T07:14:05;-0.90;99.90
11284;DHT22;5698;47.332;11.180;2023-02-02T07:16:33;-0.80;99.90
11284;DHT22;5698;47.332;11.180;2023-02-02T07:19:00;-0.80;99.90
11284;DHT22;5698;47.332;11.180;2023-02-02T07:21:28;-0.90;99.90
11284;DHT22;5698;47.332;11.180;2023-02-02T07:24:00;-0.90;99.90
11284;DHT22;5698;47.332;11.180;2023-02-02T07:26:27;-0.80;99.90
11284;DHT22;5698;47.332;11.180;2023-02-02T07:28:54;-0.80;99.90
11284;DHT22;5698;47.332;11.180;2023-02-02T07:31:23;-0.80;99.90
11284;DHT22;5698;47.332;11.180;2023-02-02T07:33:50;-0.70;99.90
11284;DHT22;5698;47.332;11.180;2023-02-02T07:36:19;-0.80;99.90
11284;DHT22;5698;47.332;11.180;2023-02-02T07:38:51;-0.90;99.90
11284;DHT22;5698;47.332;11.180;2023-02-02T07:41:19;-0.80;99.90
11284;DHT22;5698;47.332;11.180;2023-02-02T07:43:46;-0.90;99.90
11284;DHT22;5698;47.332;11.180;2023-02-02T07:46:14;-0.90;99.90
11284;DHT22;5698;47.332;11.180;2023-02-02T07:48:41;-0.90;99.90
11284;DHT22;5698;47.332;11.180;2023-02-02T07:51:13;-1.00;99.90
11284;DHT22;5698;47.332;11.180;2023-02-02T07:53:42;-1.00;99.90
11284;DHT22;5698;47.332;11.180;2023-02-02T07:56:12;-1.00;99.90
11284;DHT22;5698;47.332;11.180;2023-02-02T07:58:41;-1.00;99.90
11284;DHT22;5698;47.332;11.180;2023-02-02T08:01:10;-0.90;99.90
11284;DHT22;5698;47.332;11.180;2023-02-02T08:03:38;-0.90;99.90
11284;DHT22;5698;47.332;11.180;2023-02-02T08:06:11;-0.90;99.90
11284;DHT22;5698;47.332;11.180;2023-02-02T08:08:39;-0.90;99.90
11284;DHT22;5698;47.332;11.180;2023-02-02T08:11:08;-0.80;99.90
11284;DHT22;5698;47.332;11.180;2023-02-02T08:13:37;-0.80;99.90
11284;DHT22;5698;47.332;11.180;2023-02-02T08:16:05;-0.80;99.90
11284;DHT22;5698;47.332;11.180;2023-02-02T08:18:32;-0.80;99.90
11284;DHT22;5698;47.332;11.180;2023-02-02T08:21:00;-0.70;99.90
11284;DHT22;5698;47.332;11.180;2023-02-02T08:23:28;-0.70;99.90
11284;DHT22;5698;47.332;11.180;2023-02-02T08:26:05;-0.70;99.90
11284;DHT22;5698;47.332;11.180;2023-02-02T08:28:32;-0.60;99.90
11284;DHT22;5698;47.332;11.180;2023-02-02T08:31:05;-0.60;99.90
11284;DHT22;5698;47.332;11.180;2023-02-02T08:33:32;-0.60;99.90
11284;DHT22;5698;47.332;11.180;2023-02-02T08:35:59;-0.60;99.90
11284;DHT22;5698;47.332;11.180;2023-02-02T08:38:26;-0.60;99.90
11284;DHT22;5698;47.332;11.180;2023-02-02T08:40:53;-0.60;99.90
11284;DHT22;5698;47.332;11.180;2023-02-02T08:43:20;-0.60;99.90
11284;DHT22;5698;47.332;11.180;2023-02-02T08:45:49;-0.60;99.90
11284;DHT22;5698;47.332;11.180;2023-02-02T08:48:18;-0.50;99.90
11284;DHT22;5698;47.332;11.180;2023-02-02T08:50:51;-0.60;99.90
11284;DHT22;5698;47.332;11.180;2023-02-02T08:53:19;-0.40;99.90
11284;DHT22;5698;47.332;11.180;2023-02-02T08:55:47;-0.50;99.90
11284;DHT22;5698;47.332;11.180;2023-02-02T08:58:14;-0.40;99.90
11284;DHT22;5698;47.332;11.180;2023-02-02T09:00:41;-0.40;99.90
11284;DHT22;5698;47.332;11.180;2023-02-02T09:03:08;-0.40;99.90
11284;DHT22;5698;47.332;11.180;2023-02-02T09:05:36;-0.30;99.90
11284;DHT22;5698;47.332;11.180;2023-02-02T09:08:04;-0.40;99.90
11284;DHT22;5698;47.332;11.180;2023-02-02T09:10:34;-0.40;99.90
11284;DHT22;5698;47.332;11.180;2023-02-02T09:13:01;-0.40;99.90
11284;DHT22;5698;47.332;11.180;2023-02-02T09:15:28;-0.50;99.90
11284;DHT22;5698;47.332;11.180;2023-02-02T09:17:55;-0.40;99.90
11284;DHT22;5698;47.332;11.180;2023-02-02T09:20:22;-0.50;99.90
11284;DHT22;5698;47.332;11.180;2023-02-02T09:22:50;-0.50;99.90
11284;DHT22;5698;47.332;11.180;2023-02-02T09:25:20;-0.40;99.90
11284;DHT22;5698;47.332;11.180;2023-02-02T09:27:47;-0.30;99.90
11284;DHT22;5698;47.332;11.180;2023-02-02T09:30:14;-0.40;99.90
11284;DHT22;5698;47.332;11.180;2023-02-02T09:32:41;-0.30;99.90
11284;DHT22;5698;47.332;11.180;2023-02-02T09:35:10;-0.30;99.90
11284;DHT22;5698;47.332;11.180;2023-02-02T09:37:37;-0.40;99.90
11284;DHT22;5698;47.332;11.180;2023-02-02T09:40:06;-0.40;99.90
11284;DHT22;5698;47.332;11.180;2023-02-02T09:42:50;-0.40;99.90
11284;DHT22;5698;47.332;11.180;2023-02-02T09:45:25;-0.30;99.90
11284;DHT22;5698;47.332;11.180;2023-02-02T09:47:55;-0.20;99.90
11284;DHT22;5698;47.332;11.180;2023-02-02T09:50:48;-0.30;99.90
11284;DHT22;5698;47.332;11.180;2023-02-02T09:53:20;-0.20;99.90
11284;DHT22;5698;47.332;11.180;2023-02-02T09:55:52;-0.20;99.90
11284;DHT22;5698;47.332;11.180;2023-02-02T09:58:23;-0.10;99.90
11284;DHT22;5698;47.332;11.180;2023-02-02T10:00:55;-0.10;99.90
11284;DHT22;5698;47.332;11.180;2023-02-02T10:03:31;-0.10;99.90
11284;DHT22;5698;47.332;11.180;2023-02-02T10:06:05;0.00;99.90
11284;DHT22;5698;47.332;11.180;2023-02-02T10:08:41;-0.10;99.90
11284;DHT22;5698;47.332;11.180;2023-02-02T10:11:24;0.00;99.90
11284;DHT22;5698;47.332;11.180;2023-02-02T10:13:54;0.00;99.90
11284;DHT22;5698;47.332;11.180;2023-02-02T10:16:23;0.00;99.90
11284;DHT22;5698;47.332;11.180;2023-02-02T10:18:54;0.00;99.90
11284;DHT22;5698;47.332;11.180;2023-02-02T10:21:28;0.00;99.90
11284;DHT22;5698;47.332;11.180;2023-02-02T10:23:58;0.00;99.90
11284;DHT22;5698;47.332;11.180;2023-02-02T10:26:31;0.10;99.90
11284;DHT22;5698;47.332;11.180;2023-02-02T10:29:11;0.10;99.90
11284;DHT22;5698;47.332;11.180;2023-02-02T10:31:43;0.20;99.90
11284;DHT22;5698;47.332;11.180;2023-02-02T10:34:15;0.20;99.90
11284;DHT22;5698;47.332;11.180;2023-02-02T10:37:01;0.30;99.90
11284;DHT22;5698;47.332;11.180;2023-02-02T10:39:43;0.40;99.90
11284;DHT22;5698;47.332;11.180;2023-02-02T10:42:22;0.40;99.90
11284;DHT22;5698;47.332;11.180;2023-02-02T10:44:55;0.40;99.90
11284;DHT22;5698;47.332;11.180;2023-02-02T10:47:26;0.50;99.90
11284;DHT22;5698;47.332;11.180;2023-02-02T10:50:01;0.60;99.90
11284;DHT22;5698;47.332;11.180;2023-02-02T10:52:31;0.60;99.90
11284;DHT22;5698;47.332;11.180;2023-02-02T10:55:02;0.60;99.90
11284;DHT22;5698;47.332;11.180;2023-02-02T10:57:45;0.70;99.90
11284;DHT22;5698;47.332;11.180;2023-02-02T11:00:20;0.70;99.90
11284;DHT22;5698;47.332;11.180;2023-02-02T11:02:48;0.70;99.90
11284;DHT22;5698;47.332;11.180;2023-02-02T11:05:19;0.70;99.90
11284;DHT22;5698;47.332;11.180;2023-02-02T11:08:14;0.80;99.90
11284;DHT22;5698;47.332;11.180;2023-02-02T11:10:42;0.80;99.90
11284;DHT22;5698;47.332;11.180;2023-02-02T11:13:16;0.80;99.90
11284;DHT22;5698;47.332;11.180;2023-02-02T11:15:45;0.90;99.90
11284;DHT22;5698;47.332;11.180;2023-02-02T11:18:13;0.90;99.90
11284;DHT22;5698;47.332;11.180;2023-02-02T11:20:41;1.00;99.90
11284;DHT22;5698;47.332;11.180;2023-02-02T11:23:16;1.10;99.90
11284;DHT22;5698;47.332;11.180;2023-02-02T11:25:43;1.10;99.90
11284;DHT22;5698;47.332;11.180;2023-02-02T11:28:17;1.00;99.90
11284;DHT22;5698;47.332;11.180;2023-02-02T11:30:46;1.10;99.90
11284;DHT22;5698;47.332;11.180;2023-02-02T11:33:24;1.10;99.90
11284;DHT22;5698;47.332;11.180;2023-02-02T11:35:54;1.20;99.90
11284;DHT22;5698;47.332;11.180;2023-02-02T11:38:22;1.20;99.90
11284;DHT22;5698;47.332;11.180;2023-02-02T11:40:53;1.20;99.90
11284;DHT22;5698;47.332;11.180;2023-02-02T11:43:25;1.20;99.90
11284;DHT22;5698;47.332;11.180;2023-02-02T11:45:56;1.40;99.90
11284;DHT22;5698;47.332;11.180;2023-02-02T11:48:27;1.30;99.90
11284;DHT22;5698;47.332;11.180;2023-02-02T11:50:56;1.40;99.90
11284;DHT22;5698;47.332;11.180;2023-02-02T11:53:26;1.30;99.90
11284;DHT22;5698;47.332;11.180;2023-02-02T11:55:55;1.20;99.90
11284;DHT22;5698;47.332;11.180;2023-02-02T11:58:25;1.30;99.90
11284;DHT22;5698;47.332;11.180;2023-02-02T12:00:56;1.50;99.90
11284;DHT22;5698;47.332;11.180;2023-02-02T12:03:30;1.50;99.90
11284;DHT22;5698;47.332;11.180;2023-02-02T12:05:57;1.50;99.90
11284;DHT22;5698;47.332;11.180;2023-02-02T12:08:27;1.50;99.90
11284;DHT22;5698;47.332;11.180;2023-02-02T12:10:58;1.40;99.90
11284;DHT22;5698;47.332;11.180;2023-02-02T12:13:37;1.20;99.90
11284;DHT22;5698;47.332;11.180;2023-02-02T12:16:18;1.20;99.90
11284;DHT22;5698;47.332;11.180;2023-02-02T12:18:57;1.10;99.90
11284;DHT22;5698;47.332;11.180;2023-02-02T12:21:33;1.10;99.90
11284;DHT22;5698;47.332;11.180;2023-02-02T12:24:20;1.10;99.90
11284;DHT22;5698;47.332;11.180;2023-02-02T12:26:56;1.20;99.90
11284;DHT22;5698;47.332;11.180;2023-02-02T12:29:47;1.20;99.90
11284;DHT22;5698;47.332;11.180;2023-02-02T12:32:26;1.30;99.90
11284;DHT22;5698;47.332;11.180;2023-02-02T12:35:10;1.30;99.90
11284;DHT22;5698;47.332;11.180;2023-02-02T12:37:52;1.20;99.90
11284;DHT22;5698;47.332;11.180;2023-02-02T12:43:22;1.20;99.90
11284;DHT22;5698;47.332;11.180;2023-02-02T12:46:08;1.20;99.90
11284;DHT22;5698;47.332;11.180;2023-02-02T12:48:45;1.20;99.90
11284;DHT22;5698;47.332;11.180;2023-02-02T12:51:27;1.00;99.90
11284;DHT22;5698;47.332;11.180;2023-02-02T12:54:10;0.90;99.90
11284;DHT22;5698;47.332;11.180;2023-02-02T12:56:46;0.90;99.90
11284;DHT22;5698;47.332;11.180;2023-02-02T12:59:25;0.90;99.90
11284;DHT22;5698;47.332;11.180;2023-02-02T13:02:04;0.90;99.90
11284;DHT22;5698;47.332;11.180;2023-02-02T13:04:50;0.90;99.90
11284;DHT22;5698;47.332;11.180;2023-02-02T13:07:30;1.00;99.90
11284;DHT22;5698;47.332;11.180;2023-02-02T13:10:05;0.90;99.90
11284;DHT22;5698;47.332;11.180;2023-02-02T13:12:35;0.70;99.90
11284;DHT22;5698;47.332;11.180;2023-02-02T13:15:07;0.70;99.90
11284;DHT22;5698;47.332;11.180;2023-02-02T13:17:40;0.60;99.90
11284;DHT22;5698;47.332;11.180;2023-02-02T13:20:19;0.70;99.90
11284;DHT22;5698;47.332;11.180;2023-02-02T13:22:50;0.70;99.90
11284;DHT22;5698;47.332;11.180;2023-02-02T13:25:27;0.80;99.90
11284;DHT22;5698;47.332;11.180;2023-02-02T13:27:57;0.80;99.90
11284;DHT22;5698;47.332;11.180;2023-02-02T13:30:30;0.80;99.90
11284;DHT22;5698;47.332;11.180;2023-02-02T13:33:03;0.80;99.90
11284;DHT22;5698;47.332;11.180;2023-02-02T13:35:36;0.80;99.90
11284;DHT22;5698;47.332;11.180;2023-02-02T13:38:12;0.80;99.90
11284;DHT22;5698;47.332;11.180;2023-02-02T13:40:42;0.60;99.90
11284;DHT22;5698;47.332;11.180;2023-02-02T13:43:25;0.60;99.90
11284;DHT22;5698;47.332;11.180;2023-02-02T13:46:10;0.60;99.90
11284;DHT22;5698;47.332;11.180;2023-02-02T13:48:52;0.60;99.90
11284;DHT22;5698;47.332;11.180;2023-02-02T13:51:44;0.60;99.90
11284;DHT22;5698;47.332;11.180;2023-02-02T13:54:48;0.60;99.90
11284;DHT22;5698;47.332;11.180;2023-02-02T13:57:42;0.60;99.90
11284;DHT22;5698;47.332;11.180;2023-02-02T14:00:16;0.50;99.90
11284;DHT22;5698;47.332;11.180;2023-02-02T14:02:46;0.50;99.90
11284;DHT22;5698;47.332;11.180;2023-02-02T14:05:24;0.40;99.90
11284;DHT22;5698;47.332;11.180;2023-02-02T14:07:59;0.40;99.90
11284;DHT22;5698;47.332;11.180;2023-02-02T14:10:30;0.20;99.90
11284;DHT22;5698;47.332;11.180;2023-02-02T14:13:13;0.30;99.90
11284;DHT22;5698;47.332;11.180;2023-02-02T14:15:59;0.30;99.90
11284;DHT22;5698;47.332;11.180;2023-02-02T14:18:53;0.30;99.90
11284;DHT22;5698;47.332;11.180;2023-02-02T14:22:00;0.40;99.90
11284;DHT22;5698;47.332;11.180;2023-02-02T14:24:43;0.40;99.90
11284;DHT22;5698;47.332;11.180;2023-02-02T14:30:28;0.30;99.90
11284;DHT22;5698;47.332;11.180;2023-02-02T14:36:01;0.30;99.90
11284;DHT22;5698;47.332;11.180;2023-02-02T14:42:08;0.40;99.90
11284;DHT22;5698;47.332;11.180;2023-02-02T14:45:28;0.30;99.90
11284;DHT22;5698;47.332;11.180;2023-02-02T14:47:57;0.40;99.90
11284;DHT22;5698;47.332;11.180;2023-02-02T14:50:43;0.40;99.90
11284;DHT22;5698;47.332;11.180;2023-02-02T14:53:24;0.30;99.90
11284;DHT22;5698;47.332;11.180;2023-02-02T14:55:59;0.30;99.90
11284;DHT22;5698;47.332;11.180;2023-02-02T14:58:32;0.20;99.90
11284;DHT22;5698;47.332;11.180;2023-02-02T15:01:11;0.30;99.90
11284;DHT22;5698;47.332;11.180;2023-02-02T15:03:52;0.40;99.90
11284;DHT22;5698;47.332;11.180;2023-02-02T15:06:29;0.40;99.90
11284;DHT22;5698;47.332;11.180;2023-02-02T15:12:24;0.40;99.90
11284;DHT22;5698;47.332;11.180;2023-02-02T15:15:01;0.30;99.90
11284;DHT22;5698;47.332;11.180;2023-02-02T15:17:33;0.00;99.90
11284;DHT22;5698;47.332;11.180;2023-02-02T15:20:11;0.10;99.90
11284;DHT22;5698;47.332;11.180;2023-02-02T15:22:44;-0.10;99.90
11284;DHT22;5698;47.332;11.180;2023-02-02T15:25:19;0.00;99.90
11284;DHT22;5698;47.332;11.180;2023-02-02T15:27:52;0.10;99.90
11284;DHT22;5698;47.332;11.180;2023-02-02T15:30:22;0.10;99.90
11284;DHT22;5698;47.332;11.180;2023-02-02T15:32:50;0.10;99.90
11284;DHT22;5698;47.332;11.180;2023-02-02T15:35:20;0.10;99.90
11284;DHT22;5698;47.332;11.180;2023-02-02T15:37:58;0.10;99.90
11284;DHT22;5698;47.332;11.180;2023-02-02T15:40:28;0.10;99.90
11284;DHT22;5698;47.332;11.180;2023-02-02T15:42:59;0.10;99.90
11284;DHT22;5698;47.332;11.180;2023-02-02T15:45:43;0.10;99.90
11284;DHT22;5698;47.332;11.180;2023-02-02T15:48:19;0.00;99.90
11284;DHT22;5698;47.332;11.180;2023-02-02T15:50:48;0.00;99.90
11284;DHT22;5698;47.332;11.180;2023-02-02T15:53:22;0.00;99.90
11284;DHT22;5698;47.332;11.180;2023-02-02T15:55:50;0.00;99.90
11284;DHT22;5698;47.332;11.180;2023-02-02T15:58:29;0.10;99.90
11284;DHT22;5698;47.332;11.180;2023-02-02T16:01:03;0.20;99.90
11284;DHT22;5698;47.332;11.180;2023-02-02T16:03:39;0.00;99.90
11284;DHT22;5698;47.332;11.180;2023-02-02T16:06:07;0.00;99.90
11284;DHT22;5698;47.332;11.180;2023-02-02T16:08:36;0.00;99.90
11284;DHT22;5698;47.332;11.180;2023-02-02T16:11:07;-0.10;99.90
11284;DHT22;5698;47.332;11.180;2023-02-02T16:13:35;-0.10;99.90
11284;DHT22;5698;47.332;11.180;2023-02-02T16:16:05;-0.10;99.90
11284;DHT22;5698;47.332;11.180;2023-02-02T16:18:34;-0.20;99.90
11284;DHT22;5698;47.332;11.180;2023-02-02T16:21:08;-0.10;99.90
11284;DHT22;5698;47.332;11.180;2023-02-02T16:23:37;-0.10;99.90
11284;DHT22;5698;47.332;11.180;2023-02-02T16:26:06;0.00;99.90
11284;DHT22;5698;47.332;11.180;2023-02-02T16:28:33;-0.10;99.90